sensor_id;sensor_type;location;lat;lon;timestamp;pressure;altitude;pressure_sealevel;temperature;humidity
47592;BME280;33317;33.356;-117.184;2022-07-01T00:02:14;99139.62;;;26.79;24.65
47592;BME280;33317;33.356;-117.184;2022-07-01T00:04:43;99137.96;;;26.78;24.73
47592;BME280;33317;33.356;-117.184;2022-07-01T00:07:11;99137.21;;;27.09;24.46
47592;BME280;33317;33.356;-117.184;2022-07-01T00:09:40;99135.58;;;26.87;24.66
47592;BME280;33317;33.356;-117.184;2022-07-01T00:12:08;99134.53;;;27.42;24.16
47592;BME280;33317;33.356;-117.184;2022-07-01T00:14:42;99127.06;;;27.65;23.78
47592;BME280;33317;33.356;-117.184;2022-07-01T00:17:11;99123.34;;;27.68;24.00
47592;BME280;33317;33.356;-117.184;2022-07-01T00:19:39;99122.28;;;26.85;24.58
47592;BME280;33317;33.356;-117.184;2022-07-01T00:22:08;99124.31;;;26.55;24.85
47592;BME280;33317;33.356;-117.184;2022-07-01T00:24:36;99119.58;;;26.72;24.56
47592;BME280;33317;33.356;-117.184;2022-07-01T00:27:05;99117.99;;;26.78;24.45
47592;BME280;33317;33.356;-117.184;2022-07-01T00:29:39;99111.67;;;27.01;24.16
47592;BME280;33317;33.356;-117.184;2022-07-01T00:32:13;99107.89;;;27.11;23.95
47592;BME280;33317;33.356;-117.184;2022-07-01T00:34:42;99103.03;;;27.28;24.00
47592;BME280;33317;33.356;-117.184;2022-07-01T00:37:10;99103.35;;;27.80;23.72
47592;BME280;33317;33.356;-117.184;2022-07-01T00:39:38;99104.97;;;27.12;24.27
47592;BME280;33317;33.356;-117.184;2022-07-01T00:42:07;99102.37;;;27.53;23.81
47592;BME280;33317;33.356;-117.184;2022-07-01T00:44:36;99102.82;;;27.57;23.63
47592;BME280;33317;33.356;-117.184;2022-07-01T00:47:12;99101.69;;;27.44;23.68
47592;BME280;33317;33.356;-117.184;2022-07-01T00:49:42;99102.06;;;27.54;23.78
47592;BME280;33317;33.356;-117.184;2022-07-01T00:52:11;99101.57;;;27.04;23.68
47592;BME280;33317;33.356;-117.184;2022-07-01T00:54:42;99097.57;;;27.34;23.42
47592;BME280;33317;33.356;-117.184;2022-07-01T00:57:12;99096.89;;;27.53;23.34
47592;BME280;33317;33.356;-117.184;2022-07-01T00:59:47;99101.90;;;27.55;23.21
47592;BME280;33317;33.356;-117.184;2022-07-01T01:02:16;99100.81;;;27.91;23.20
47592;BME280;33317;33.356;-117.184;2022-07-01T01:04:45;99102.15;;;28.46;23.05
47592;BME280;33317;33.356;-117.184;2022-07-01T01:07:13;99103.99;;;28.75;22.66
47592;BME280;33317;33.356;-117.184;2022-07-01T01:09:42;99104.21;;;29.05;22.90
47592;BME280;33317;33.356;-117.184;2022-07-01T01:12:12;99105.61;;;28.60;23.10
47592;BME280;33317;33.356;-117.184;2022-07-01T01:14:45;99103.27;;;28.77;23.36
47592;BME280;33317;33.356;-117.184;2022-07-01T01:17:14;99103.53;;;28.67;23.55
47592;BME280;33317;33.356;-117.184;2022-07-01T01:19:44;99104.37;;;28.29;24.13
47592;BME280;33317;33.356;-117.184;2022-07-01T01:22:23;99105.56;;;27.21;24.86
47592;BME280;33317;33.356;-117.184;2022-07-01T01:24:53;99105.68;;;27.38;24.47
47592;BME280;33317;33.356;-117.184;2022-07-01T01:27:26;99111.18;;;27.77;23.80
47592;BME280;33317;33.356;-117.184;2022-07-01T01:29:54;99113.10;;;27.86;23.67
47592;BME280;33317;33.356;-117.184;2022-07-01T01:32:23;99113.58;;;27.46;23.67
47592;BME280;33317;33.356;-117.184;2022-07-01T01:34:56;99114.73;;;27.64;23.75
47592;BME280;33317;33.356;-117.184;2022-07-01T01:37:25;99113.82;;;28.20;23.56
47592;BME280;33317;33.356;-117.184;2022-07-01T01:39:54;99118.92;;;28.10;23.75
47592;BME280;33317;33.356;-117.184;2022-07-01T01:42:27;99120.01;;;27.29;24.22
47592;BME280;33317;33.356;-117.184;2022-07-01T01:44:56;99118.88;;;27.69;23.61
47592;BME280;33317;33.356;-117.184;2022-07-01T01:47:24;99120.02;;;27.65;23.49
47592;BME280;33317;33.356;-117.184;2022-07-01T01:49:54;99117.89;;;27.84;23.53
47592;BME280;33317;33.356;-117.184;2022-07-01T01:52:22;99116.31;;;27.67;23.52
47592;BME280;33317;33.356;-117.184;2022-07-01T01:54:51;99118.77;;;27.91;23.40
47592;BME280;33317;33.356;-117.184;2022-07-01T01:57:21;99124.00;;;28.41;23.27
47592;BME280;33317;33.356;-117.184;2022-07-01T01:59:54;99124.64;;;28.37;23.56
47592;BME280;33317;33.356;-117.184;2022-07-01T02:02:23;99128.24;;;27.84;23.75
47592;BME280;33317;33.356;-117.184;2022-07-01T02:04:52;99132.90;;;26.89;24.68
47592;BME280;33317;33.356;-117.184;2022-07-01T02:07:20;99136.59;;;26.84;24.51
47592;BME280;33317;33.356;-117.184;2022-07-01T02:09:48;99135.18;;;26.75;24.52
47592;BME280;33317;33.356;-117.184;2022-07-01T02:12:17;99136.75;;;27.00;24.30
47592;BME280;33317;33.356;-117.184;2022-07-01T02:14:45;99136.93;;;27.44;23.96
47592;BME280;33317;33.356;-117.184;2022-07-01T02:17:18;99135.29;;;27.56;23.76
47592;BME280;33317;33.356;-117.184;2022-07-01T02:19:47;99138.37;;;27.26;24.13
47592;BME280;33317;33.356;-117.184;2022-07-01T02:22:15;99136.20;;;27.48;23.89
47592;BME280;33317;33.356;-117.184;2022-07-01T02:24:46;99140.53;;;27.85;23.67
47592;BME280;33317;33.356;-117.184;2022-07-01T02:27:19;99142.74;;;28.31;23.48
47592;BME280;33317;33.356;-117.184;2022-07-01T02:29:47;99141.96;;;28.22;23.31
47592;BME280;33317;33.356;-117.184;2022-07-01T02:32:16;99140.31;;;28.29;22.99
47592;BME280;33317;33.356;-117.184;2022-07-01T02:34:44;99139.47;;;28.46;22.92
47592;BME280;33317;33.356;-117.184;2022-07-01T02:37:13;99140.26;;;28.37;23.13
47592;BME280;33317;33.356;-117.184;2022-07-01T02:39:47;99143.59;;;28.67;22.97
47592;BME280;33317;33.356;-117.184;2022-07-01T02:42:20;99147.52;;;28.56;23.00
47592;BME280;33317;33.356;-117.184;2022-07-01T02:44:49;99145.75;;;29.23;23.20
47592;BME280;33317;33.356;-117.184;2022-07-01T02:47:17;99148.06;;;28.70;23.36
47592;BME280;33317;33.356;-117.184;2022-07-01T02:49:45;99153.68;;;27.83;23.60
47592;BME280;33317;33.356;-117.184;2022-07-01T02:52:15;99153.63;;;27.99;23.60
47592;BME280;33317;33.356;-117.184;2022-07-01T02:54:51;99149.77;;;28.59;23.23
47592;BME280;33317;33.356;-117.184;2022-07-01T02:57:19;99156.17;;;28.62;23.13
47592;BME280;33317;33.356;-117.184;2022-07-01T02:59:48;99156.23;;;28.46;23.10
47592;BME280;33317;33.356;-117.184;2022-07-01T03:02:22;99155.79;;;28.73;23.04
47592;BME280;33317;33.356;-117.184;2022-07-01T03:04:53;99154.79;;;28.53;23.17
47592;BME280;33317;33.356;-117.184;2022-07-01T03:07:28;99155.53;;;27.91;23.70
47592;BME280;33317;33.356;-117.184;2022-07-01T03:09:58;99155.39;;;27.47;23.98
47592;BME280;33317;33.356;-117.184;2022-07-01T03:12:32;99162.19;;;27.64;24.45
47592;BME280;33317;33.356;-117.184;2022-07-01T03:15:05;99162.19;;;27.94;23.99
47592;BME280;33317;33.356;-117.184;2022-07-01T03:17:37;99159.07;;;28.27;23.70
47592;BME280;33317;33.356;-117.184;2022-07-01T03:20:09;99162.88;;;28.64;23.17
47592;BME280;33317;33.356;-117.184;2022-07-01T03:22:39;99161.42;;;28.67;22.73
47592;BME280;33317;33.356;-117.184;2022-07-01T03:25:14;99159.13;;;28.00;23.69
47592;BME280;33317;33.356;-117.184;2022-07-01T03:27:44;99161.39;;;27.88;24.13
47592;BME280;33317;33.356;-117.184;2022-07-01T03:30:13;99157.95;;;28.07;23.68
47592;BME280;33317;33.356;-117.184;2022-07-01T03:32:48;99160.47;;;28.74;23.48
47592;BME280;33317;33.356;-117.184;2022-07-01T03:35:21;99162.01;;;29.05;23.46
47592;BME280;33317;33.356;-117.184;2022-07-01T03:37:50;99164.43;;;29.03;23.31
47592;BME280;33317;33.356;-117.184;2022-07-01T03:40:19;99163.19;;;28.95;23.32
47592;BME280;33317;33.356;-117.184;2022-07-01T03:42:53;99163.04;;;29.24;23.14
47592;BME280;33317;33.356;-117.184;2022-07-01T03:45:27;99167.06;;;29.37;22.88
47592;BME280;33317;33.356;-117.184;2022-07-01T03:47:57;99168.75;;;29.22;22.57
47592;BME280;33317;33.356;-117.184;2022-07-01T03:50:27;99168.52;;;28.53;23.33
47592;BME280;33317;33.356;-117.184;2022-07-01T03:52:56;99170.80;;;28.67;23.36
47592;BME280;33317;33.356;-117.184;2022-07-01T03:55:25;99172.05;;;28.69;23.43
47592;BME280;33317;33.356;-117.184;2022-07-01T03:57:55;99173.42;;;28.71;23.38
47592;BME280;33317;33.356;-117.184;2022-07-01T04:00:25;99177.58;;;28.99;23.49
47592;BME280;33317;33.356;-117.184;2022-07-01T04:02:55;99180.55;;;28.82;23.72
47592;BME280;33317;33.356;-117.184;2022-07-01T04:05:29;99179.83;;;28.99;23.56
47592;BME280;33317;33.356;-117.184;2022-07-01T04:08:02;99179.40;;;29.05;23.48
47592;BME280;33317;33.356;-117.184;2022-07-01T04:10:39;99181.38;;;29.29;23.57
47592;BME280;33317;33.356;-117.184;2022-07-01T04:13:12;99184.13;;;29.46;23.11
47592;BME280;33317;33.356;-117.184;2022-07-01T04:15:40;99189.17;;;28.67;23.64
47592;BME280;33317;33.356;-117.184;2022-07-01T04:18:10;99192.85;;;28.45;23.23
47592;BME280;33317;33.356;-117.184;2022-07-01T04:20:40;99197.83;;;28.87;23.42
47592;BME280;33317;33.356;-117.184;2022-07-01T04:23:09;99196.74;;;28.72;23.46
47592;BME280;33317;33.356;-117.184;2022-07-01T04:25:38;99199.59;;;28.98;23.59
47592;BME280;33317;33.356;-117.184;2022-07-01T04:28:07;99205.89;;;28.97;23.62
47592;BME280;33317;33.356;-117.184;2022-07-01T04:30:38;99210.59;;;29.28;23.66
47592;BME280;33317;33.356;-117.184;2022-07-01T04:33:08;99210.67;;;28.93;23.58
47592;BME280;33317;33.356;-117.184;2022-07-01T04:35:43;99215.03;;;28.98;23.58
47592;BME280;33317;33.356;-117.184;2022-07-01T04:38:18;99216.15;;;29.23;23.61
47592;BME280;33317;33.356;-117.184;2022-07-01T04:40:47;99219.79;;;28.77;23.64
47592;BME280;33317;33.356;-117.184;2022-07-01T04:43:18;99225.94;;;29.32;23.47
47592;BME280;33317;33.356;-117.184;2022-07-01T04:45:50;99228.92;;;29.11;23.07
47592;BME280;33317;33.356;-117.184;2022-07-01T04:48:29;99229.27;;;28.94;22.95
47592;BME280;33317;33.356;-117.184;2022-07-01T04:51:05;99226.71;;;28.95;23.17
47592;BME280;33317;33.356;-117.184;2022-07-01T04:53:52;99230.88;;;29.18;23.32
47592;BME280;33317;33.356;-117.184;2022-07-01T04:56:21;99235.27;;;28.96;23.29
47592;BME280;33317;33.356;-117.184;2022-07-01T04:58:56;99239.05;;;28.96;23.37
47592;BME280;33317;33.356;-117.184;2022-07-01T05:01:33;99240.32;;;28.99;23.43
47592;BME280;33317;33.356;-117.184;2022-07-01T05:04:09;99241.78;;;29.23;23.45
47592;BME280;33317;33.356;-117.184;2022-07-01T05:06:39;99246.79;;;29.06;23.44
47592;BME280;33317;33.356;-117.184;2022-07-01T05:09:08;99247.18;;;29.06;23.46
47592;BME280;33317;33.356;-117.184;2022-07-01T05:11:39;99245.92;;;29.49;23.52
47592;BME280;33317;33.356;-117.184;2022-07-01T05:14:10;99248.23;;;29.25;23.55
47592;BME280;33317;33.356;-117.184;2022-07-01T05:16:40;99245.19;;;28.75;24.03
47592;BME280;33317;33.356;-117.184;2022-07-01T05:19:10;99247.91;;;28.92;23.83
47592;BME280;33317;33.356;-117.184;2022-07-01T05:21:39;99248.93;;;29.02;23.77
47592;BME280;33317;33.356;-117.184;2022-07-01T05:24:08;99249.69;;;29.27;23.77
47592;BME280;33317;33.356;-117.184;2022-07-01T05:26:38;99252.63;;;29.32;23.81
47592;BME280;33317;33.356;-117.184;2022-07-01T05:29:07;99252.08;;;29.12;23.81
47592;BME280;33317;33.356;-117.184;2022-07-01T05:31:37;99255.30;;;29.30;23.95
47592;BME280;33317;33.356;-117.184;2022-07-01T05:34:09;99254.39;;;29.01;24.03
47592;BME280;33317;33.356;-117.184;2022-07-01T05:36:38;99256.73;;;28.99;24.29
47592;BME280;33317;33.356;-117.184;2022-07-01T05:39:07;99255.90;;;28.98;24.22
47592;BME280;33317;33.356;-117.184;2022-07-01T05:41:38;99257.63;;;29.20;24.27
47592;BME280;33317;33.356;-117.184;2022-07-01T05:44:07;99260.80;;;28.95;24.26
47592;BME280;33317;33.356;-117.184;2022-07-01T05:46:36;99259.33;;;28.92;24.38
47592;BME280;33317;33.356;-117.184;2022-07-01T05:49:05;99261.10;;;29.11;24.40
47592;BME280;33317;33.356;-117.184;2022-07-01T05:51:33;99259.01;;;28.84;24.67
47592;BME280;33317;33.356;-117.184;2022-07-01T05:54:02;99260.07;;;29.01;24.70
47592;BME280;33317;33.356;-117.184;2022-07-01T05:56:30;99257.27;;;29.24;24.71
47592;BME280;33317;33.356;-117.184;2022-07-01T05:58:59;99256.44;;;29.00;24.73
47592;BME280;33317;33.356;-117.184;2022-07-01T06:01:27;99258.19;;;28.75;24.79
47592;BME280;33317;33.356;-117.184;2022-07-01T06:03:56;99260.79;;;28.74;24.79
47592;BME280;33317;33.356;-117.184;2022-07-01T06:06:24;99263.05;;;29.15;24.95
47592;BME280;33317;33.356;-117.184;2022-07-01T06:08:52;99263.23;;;28.70;24.88
47592;BME280;33317;33.356;-117.184;2022-07-01T06:11:21;99263.26;;;28.90;24.95
47592;BME280;33317;33.356;-117.184;2022-07-01T06:13:49;99265.14;;;28.68;25.14
47592;BME280;33317;33.356;-117.184;2022-07-01T06:16:18;99263.78;;;29.10;25.06
47592;BME280;33317;33.356;-117.184;2022-07-01T06:18:46;99263.52;;;28.86;25.03
47592;BME280;33317;33.356;-117.184;2022-07-01T06:21:14;99267.67;;;29.08;25.07
47592;BME280;33317;33.356;-117.184;2022-07-01T06:23:43;99267.85;;;28.63;25.18
47592;BME280;33317;33.356;-117.184;2022-07-01T06:26:11;99265.46;;;29.07;25.16
47592;BME280;33317;33.356;-117.184;2022-07-01T06:28:40;99265.66;;;28.85;25.18
47592;BME280;33317;33.356;-117.184;2022-07-01T06:31:08;99263.87;;;28.62;25.23
47592;BME280;33317;33.356;-117.184;2022-07-01T06:33:37;99264.15;;;29.06;25.21
47592;BME280;33317;33.356;-117.184;2022-07-01T06:36:07;99261.68;;;28.86;25.18
47592;BME280;33317;33.356;-117.184;2022-07-01T06:38:36;99261.51;;;29.11;25.13
47592;BME280;33317;33.356;-117.184;2022-07-01T06:41:05;99263.00;;;28.86;25.18
47592;BME280;33317;33.356;-117.184;2022-07-01T06:43:33;99264.55;;;29.06;25.28
47592;BME280;33317;33.356;-117.184;2022-07-01T06:46:02;99262.54;;;29.03;25.21
47592;BME280;33317;33.356;-117.184;2022-07-01T06:48:32;99265.29;;;28.99;25.23
47592;BME280;33317;33.356;-117.184;2022-07-01T06:51:01;99265.71;;;28.92;25.29
47592;BME280;33317;33.356;-117.184;2022-07-01T06:53:30;99264.95;;;28.89;25.41
47592;BME280;33317;33.356;-117.184;2022-07-01T06:55:58;99265.49;;;28.90;25.49
47592;BME280;33317;33.356;-117.184;2022-07-01T06:58:27;99264.94;;;28.88;25.56
47592;BME280;33317;33.356;-117.184;2022-07-01T07:00:56;99262.43;;;28.86;25.43
47592;BME280;33317;33.356;-117.184;2022-07-01T07:03:24;99262.09;;;28.90;25.39
47592;BME280;33317;33.356;-117.184;2022-07-01T07:05:53;99259.14;;;28.82;25.47
47592;BME280;33317;33.356;-117.184;2022-07-01T07:08:23;99259.67;;;28.58;25.48
47592;BME280;33317;33.356;-117.184;2022-07-01T07:10:51;99259.13;;;28.78;25.62
47592;BME280;33317;33.356;-117.184;2022-07-01T07:13:20;99260.93;;;28.55;25.62
47592;BME280;33317;33.356;-117.184;2022-07-01T07:15:48;99267.49;;;28.76;25.54
47592;BME280;33317;33.356;-117.184;2022-07-01T07:18:17;99268.81;;;28.75;25.83
47592;BME280;33317;33.356;-117.184;2022-07-01T07:20:46;99269.74;;;28.71;25.75
47592;BME280;33317;33.356;-117.184;2022-07-01T07:23:15;99269.31;;;28.28;25.76
47592;BME280;33317;33.356;-117.184;2022-07-01T07:25:43;99266.43;;;28.53;25.72
47592;BME280;33317;33.356;-117.184;2022-07-01T07:28:12;99268.22;;;28.71;25.92
47592;BME280;33317;33.356;-117.184;2022-07-01T07:30:40;99270.68;;;28.76;25.92
47592;BME280;33317;33.356;-117.184;2022-07-01T07:33:09;99270.22;;;28.82;25.75
47592;BME280;33317;33.356;-117.184;2022-07-01T07:35:38;99269.33;;;28.54;25.82
47592;BME280;33317;33.356;-117.184;2022-07-01T07:38:06;99269.04;;;28.46;25.75
47592;BME280;33317;33.356;-117.184;2022-07-01T07:40:35;99268.57;;;28.62;25.82
47592;BME280;33317;33.356;-117.184;2022-07-01T07:43:03;99269.19;;;28.59;25.85
47592;BME280;33317;33.356;-117.184;2022-07-01T07:45:31;99268.94;;;28.32;25.95
47592;BME280;33317;33.356;-117.184;2022-07-01T07:48:01;99267.11;;;28.49;25.91
47592;BME280;33317;33.356;-117.184;2022-07-01T07:50:29;99270.00;;;28.47;26.18
47592;BME280;33317;33.356;-117.184;2022-07-01T07:52:58;99271.01;;;28.44;26.04
47592;BME280;33317;33.356;-117.184;2022-07-01T07:55:26;99271.70;;;28.41;26.15
47592;BME280;33317;33.356;-117.184;2022-07-01T07:57:55;99267.10;;;28.64;26.17
47592;BME280;33317;33.356;-117.184;2022-07-01T08:00:23;99266.31;;;28.31;26.38
47592;BME280;33317;33.356;-117.184;2022-07-01T08:02:51;99264.76;;;28.54;26.29
47592;BME280;33317;33.356;-117.184;2022-07-01T08:05:19;99261.10;;;28.31;26.33
47592;BME280;33317;33.356;-117.184;2022-07-01T08:07:48;99260.14;;;28.25;26.45
47592;BME280;33317;33.356;-117.184;2022-07-01T08:10:17;99259.57;;;28.21;26.58
47592;BME280;33317;33.356;-117.184;2022-07-01T08:12:45;99262.72;;;28.46;26.48
47592;BME280;33317;33.356;-117.184;2022-07-01T08:15:14;99266.72;;;28.17;26.54
47592;BME280;33317;33.356;-117.184;2022-07-01T08:17:43;99269.14;;;28.15;26.62
47592;BME280;33317;33.356;-117.184;2022-07-01T08:20:11;99271.55;;;28.11;26.57
47592;BME280;33317;33.356;-117.184;2022-07-01T08:22:39;99273.74;;;28.40;26.69
47592;BME280;33317;33.356;-117.184;2022-07-01T08:25:08;99272.47;;;28.34;26.81
47592;BME280;33317;33.356;-117.184;2022-07-01T08:27:37;99271.08;;;28.06;26.62
47592;BME280;33317;33.356;-117.184;2022-07-01T08:30:07;99271.84;;;28.05;26.73
47592;BME280;33317;33.356;-117.184;2022-07-01T08:32:36;99274.13;;;28.03;26.56
47592;BME280;33317;33.356;-117.184;2022-07-01T08:35:05;99275.05;;;28.27;26.66
47592;BME280;33317;33.356;-117.184;2022-07-01T08:37:34;99278.98;;;27.98;26.85
47592;BME280;33317;33.356;-117.184;2022-07-01T08:40:02;99280.13;;;28.23;26.83
47592;BME280;33317;33.356;-117.184;2022-07-01T08:42:31;99279.81;;;28.20;26.89
47592;BME280;33317;33.356;-117.184;2022-07-01T08:44:59;99280.85;;;28.17;26.83
47592;BME280;33317;33.356;-117.184;2022-07-01T08:47:28;99285.41;;;27.88;26.97
47592;BME280;33317;33.356;-117.184;2022-07-01T08:50:00;99285.37;;;28.37;26.90
47592;BME280;33317;33.356;-117.184;2022-07-01T08:52:29;99286.79;;;28.16;26.85
47592;BME280;33317;33.356;-117.184;2022-07-01T08:54:57;99284.87;;;28.22;26.84
47592;BME280;33317;33.356;-117.184;2022-07-01T08:57:25;99287.52;;;28.18;26.96
47592;BME280;33317;33.356;-117.184;2022-07-01T09:00:10;99284.96;;;28.18;26.96
47592;BME280;33317;33.356;-117.184;2022-07-01T09:02:57;99283.99;;;27.96;27.01
47592;BME280;33317;33.356;-117.184;2022-07-01T09:05:27;99285.45;;;28.02;26.96
47592;BME280;33317;33.356;-117.184;2022-07-01T09:07:58;99287.70;;;28.30;26.95
47592;BME280;33317;33.356;-117.184;2022-07-01T09:10:28;99290.89;;;28.28;26.91
47592;BME280;33317;33.356;-117.184;2022-07-01T09:12:59;99291.88;;;28.26;26.89
47592;BME280;33317;33.356;-117.184;2022-07-01T09:15:32;99290.87;;;28.27;26.90
47592;BME280;33317;33.356;-117.184;2022-07-01T09:18:04;99293.92;;;28.01;26.88
47592;BME280;33317;33.356;-117.184;2022-07-01T09:20:35;99293.34;;;28.03;26.87
47592;BME280;33317;33.356;-117.184;2022-07-01T09:23:06;99294.46;;;28.08;26.83
47592;BME280;33317;33.356;-117.184;2022-07-01T09:25:37;99296.55;;;28.12;26.89
47592;BME280;33317;33.356;-117.184;2022-07-01T09:28:10;99296.96;;;28.40;27.00
47592;BME280;33317;33.356;-117.184;2022-07-01T09:30:39;99294.36;;;28.16;26.93
47592;BME280;33317;33.356;-117.184;2022-07-01T09:33:11;99294.44;;;28.15;26.88
47592;BME280;33317;33.356;-117.184;2022-07-01T09:35:41;99292.71;;;28.45;26.87
47592;BME280;33317;33.356;-117.184;2022-07-01T09:38:12;99291.94;;;28.21;26.84
47592;BME280;33317;33.356;-117.184;2022-07-01T09:40:51;99289.13;;;28.23;26.89
47592;BME280;33317;33.356;-117.184;2022-07-01T09:43:21;99291.34;;;28.24;26.96
47592;BME280;33317;33.356;-117.184;2022-07-01T09:45:53;99288.15;;;28.26;26.81
47592;BME280;33317;33.356;-117.184;2022-07-01T09:48:23;99287.79;;;28.52;27.00
47592;BME280;33317;33.356;-117.184;2022-07-01T09:50:52;99286.56;;;28.25;26.83
47592;BME280;33317;33.356;-117.184;2022-07-01T09:53:21;99287.80;;;28.25;26.72
47592;BME280;33317;33.356;-117.184;2022-07-01T09:55:49;99285.14;;;28.48;26.87
47592;BME280;33317;33.356;-117.184;2022-07-01T09:58:18;99284.37;;;28.16;27.10
47592;BME280;33317;33.356;-117.184;2022-07-01T10:00:47;99285.28;;;28.21;26.93
47592;BME280;33317;33.356;-117.184;2022-07-01T10:03:19;99284.03;;;28.48;26.94
47592;BME280;33317;33.356;-117.184;2022-07-01T10:05:49;99285.75;;;28.51;26.92
47592;BME280;33317;33.356;-117.184;2022-07-01T10:08:42;99287.51;;;28.25;26.87
47592;BME280;33317;33.356;-117.184;2022-07-01T10:11:39;99284.51;;;28.33;26.83
47592;BME280;33317;33.356;-117.184;2022-07-01T10:14:13;99278.64;;;28.36;26.75
47592;BME280;33317;33.356;-117.184;2022-07-01T10:16:46;99281.57;;;28.35;26.60
47592;BME280;33317;33.356;-117.184;2022-07-01T10:19:30;99277.02;;;28.29;26.70
47592;BME280;33317;33.356;-117.184;2022-07-01T10:22:23;99275.59;;;28.50;27.00
47592;BME280;33317;33.356;-117.184;2022-07-01T10:24:51;99272.07;;;28.11;27.10
47592;BME280;33317;33.356;-117.184;2022-07-01T10:27:21;99270.56;;;28.36;27.28
47592;BME280;33317;33.356;-117.184;2022-07-01T10:30:11;99270.93;;;28.32;27.26
47592;BME280;33317;33.356;-117.184;2022-07-01T10:32:47;99271.17;;;28.30;27.10
47592;BME280;33317;33.356;-117.184;2022-07-01T10:35:15;99275.46;;;27.99;27.16
47592;BME280;33317;33.356;-117.184;2022-07-01T10:37:57;99276.12;;;27.99;27.29
47592;BME280;33317;33.356;-117.184;2022-07-01T10:40:47;99274.32;;;27.95;27.26
47592;BME280;33317;33.356;-117.184;2022-07-01T10:43:16;99268.79;;;28.22;27.34
47592;BME280;33317;33.356;-117.184;2022-07-01T10:45:45;99266.54;;;28.21;27.14
47592;BME280;33317;33.356;-117.184;2022-07-01T10:48:22;99264.56;;;28.21;27.18
47592;BME280;33317;33.356;-117.184;2022-07-01T10:50:52;99260.83;;;27.95;27.27
47592;BME280;33317;33.356;-117.184;2022-07-01T10:53:20;99259.14;;;28.01;27.34
47592;BME280;33317;33.356;-117.184;2022-07-01T10:55:51;99260.62;;;28.32;27.27
47592;BME280;33317;33.356;-117.184;2022-07-01T10:58:35;99259.79;;;28.35;27.19
47592;BME280;33317;33.356;-117.184;2022-07-01T11:01:04;99262.34;;;28.10;27.04
47592;BME280;33317;33.356;-117.184;2022-07-01T11:03:36;99260.94;;;28.41;27.03
47592;BME280;33317;33.356;-117.184;2022-07-01T11:06:05;99256.34;;;28.17;26.97
47592;BME280;33317;33.356;-117.184;2022-07-01T11:08:34;99259.41;;;28.18;26.98
47592;BME280;33317;33.356;-117.184;2022-07-01T11:11:02;99263.19;;;28.17;26.92
47592;BME280;33317;33.356;-117.184;2022-07-01T11:13:31;99264.21;;;28.15;26.89
47592;BME280;33317;33.356;-117.184;2022-07-01T11:16:01;99258.77;;;28.41;26.98
47592;BME280;33317;33.356;-117.184;2022-07-01T11:18:30;99257.71;;;28.09;27.17
47592;BME280;33317;33.356;-117.184;2022-07-01T11:21:08;99257.27;;;28.31;27.05
47592;BME280;33317;33.356;-117.184;2022-07-01T11:23:37;99258.68;;;28.28;27.26
47592;BME280;33317;33.356;-117.184;2022-07-01T11:26:05;99256.51;;;28.21;27.19
47592;BME280;33317;33.356;-117.184;2022-07-01T11:28:40;99254.11;;;28.42;27.19
47592;BME280;33317;33.356;-117.184;2022-07-01T11:31:09;99252.65;;;28.32;27.49
47592;BME280;33317;33.356;-117.184;2022-07-01T11:33:38;99253.05;;;28.33;27.39
47592;BME280;33317;33.356;-117.184;2022-07-01T11:36:06;99255.30;;;27.84;27.37
47592;BME280;33317;33.356;-117.184;2022-07-01T11:38:35;99256.04;;;28.09;27.48
47592;BME280;33317;33.356;-117.184;2022-07-01T11:41:05;99253.73;;;27.82;27.52
47592;BME280;33317;33.356;-117.184;2022-07-01T11:43:35;99252.98;;;27.81;27.46
47592;BME280;33317;33.356;-117.184;2022-07-01T11:46:05;99254.51;;;27.88;27.47
47592;BME280;33317;33.356;-117.184;2022-07-01T11:48:38;99254.10;;;27.98;27.34
47592;BME280;33317;33.356;-117.184;2022-07-01T11:51:09;99255.05;;;27.81;27.22
47592;BME280;33317;33.356;-117.184;2022-07-01T11:53:39;99254.45;;;28.37;27.19
47592;BME280;33317;33.356;-117.184;2022-07-01T11:56:08;99255.07;;;28.14;27.23
47592;BME280;33317;33.356;-117.184;2022-07-01T11:58:46;99253.76;;;28.15;27.28
47592;BME280;33317;33.356;-117.184;2022-07-01T12:01:32;99254.97;;;28.16;27.05
47592;BME280;33317;33.356;-117.184;2022-07-01T12:04:02;99256.64;;;28.43;27.12
47592;BME280;33317;33.356;-117.184;2022-07-01T12:06:31;99257.75;;;28.34;27.10
47592;BME280;33317;33.356;-117.184;2022-07-01T12:09:02;99259.90;;;27.98;27.25
47592;BME280;33317;33.356;-117.184;2022-07-01T12:11:31;99258.71;;;27.95;27.31
47592;BME280;33317;33.356;-117.184;2022-07-01T12:13:59;99259.26;;;28.17;27.44
47592;BME280;33317;33.356;-117.184;2022-07-01T12:16:28;99259.68;;;28.15;27.33
47592;BME280;33317;33.356;-117.184;2022-07-01T12:19:05;99258.83;;;28.18;27.36
47592;BME280;33317;33.356;-117.184;2022-07-01T12:21:48;99260.89;;;27.85;27.50
47592;BME280;33317;33.356;-117.184;2022-07-01T12:24:17;99261.52;;;28.05;27.53
47592;BME280;33317;33.356;-117.184;2022-07-01T12:26:52;99263.38;;;28.04;27.50
47592;BME280;33317;33.356;-117.184;2022-07-01T12:29:23;99261.11;;;28.30;27.51
47592;BME280;33317;33.356;-117.184;2022-07-01T12:32:00;99263.01;;;28.11;27.54
47592;BME280;33317;33.356;-117.184;2022-07-01T12:34:46;99265.14;;;28.35;27.54
47592;BME280;33317;33.356;-117.184;2022-07-01T12:37:16;99265.29;;;28.08;27.43
47592;BME280;33317;33.356;-117.184;2022-07-01T12:39:46;99269.68;;;27.83;27.70
47592;BME280;33317;33.356;-117.184;2022-07-01T12:42:33;99273.99;;;28.14;27.60
47592;BME280;33317;33.356;-117.184;2022-07-01T12:45:05;99275.52;;;28.22;27.52
47592;BME280;33317;33.356;-117.184;2022-07-01T12:47:36;99276.72;;;28.00;27.42
47592;BME280;33317;33.356;-117.184;2022-07-01T12:50:14;99279.38;;;28.02;27.38